createdAt,value
2022-11-02T00:01:46.149Z,11.30
2022-11-02T00:04:23.733Z,11.30
2022-11-02T00:06:52.098Z,11.40
2022-11-02T00:09:22.551Z,11.40
2022-11-02T00:11:54.099Z,11.50
2022-11-02T00:14:25.251Z,11.50
2022-11-02T00:16:56.903Z,11.50
2022-11-02T00:19:25.576Z,11.60
2022-11-02T00:29:33.631Z,11.80
2022-11-02T00:32:01.299Z,11.80
2022-11-02T00:34:29.061Z,11.80
2022-11-02T00:36:57.424Z,11.80
2022-11-02T00:39:26.258Z,11.70
2022-11-02T00:42:02.080Z,11.80
2022-11-02T00:44:30.396Z,11.70
2022-11-02T00:47:05.938Z,11.70
2022-11-02T00:49:41.749Z,11.60
2022-11-02T00:52:10.264Z,11.60
2022-11-02T00:54:38.469Z,11.60
2022-11-02T00:57:07.263Z,11.60
2022-11-02T00:59:36.503Z,11.70
2022-11-02T01:02:03.851Z,11.60
2022-11-02T01:04:32.379Z,11.60
2022-11-02T01:07:00.729Z,11.60
2022-11-02T01:09:31.998Z,11.60
2022-11-02T01:12:00.377Z,11.70
2022-11-02T01:14:29.517Z,11.70
2022-11-02T01:16:59.018Z,11.70
2022-11-02T01:19:38.042Z,11.70
2022-11-02T01:22:09.933Z,11.80
2022-11-02T01:24:39.059Z,11.80
2022-11-02T01:27:16.109Z,11.80
2022-11-02T01:29:46.092Z,11.70
2022-11-02T01:32:22.168Z,11.80
2022-11-02T01:34:49.670Z,11.80
2022-11-02T01:37:25.328Z,11.80
2022-11-02T01:39:53.612Z,11.80
2022-11-02T01:42:25.386Z,11.80
2022-11-02T01:44:54.874Z,11.90
2022-11-02T01:47:32.917Z,11.90
2022-11-02T01:50:10.513Z,11.90
2022-11-02T01:52:42.978Z,11.90
2022-11-02T01:55:31.713Z,11.90
2022-11-02T02:03:40.108Z,12.00
2022-11-02T02:06:18.314Z,11.90
2022-11-02T02:08:58.914Z,12.00
2022-11-02T02:11:47.863Z,12.00
2022-11-02T02:14:28.504Z,11.90
2022-11-02T02:17:43.992Z,11.90
2022-11-02T02:20:45.717Z,11.90
2022-11-02T02:23:50.323Z,11.90
2022-11-02T02:26:50.804Z,11.80
2022-11-02T02:29:45.732Z,11.80
2022-11-02T02:32:20.433Z,11.80
2022-11-02T02:35:08.033Z,11.90
2022-11-02T02:37:55.363Z,11.90
2022-11-02T02:40:33.749Z,11.90
2022-11-02T02:43:32.666Z,11.90
2022-11-02T02:46:05.618Z,12.00
2022-11-02T02:48:34.591Z,12.00
2022-11-02T02:51:06.535Z,12.00
2022-11-02T02:53:48.615Z,12.10
2022-11-02T02:56:19.317Z,12.20
2022-11-02T02:58:51.610Z,12.20
2022-11-02T03:01:35.304Z,12.10
2022-11-02T03:04:02.456Z,12.10
2022-11-02T03:06:47.897Z,12.00
2022-11-02T03:09:21.356Z,12.00
2022-11-02T03:11:57.792Z,11.80
2022-11-02T03:14:46.378Z,11.80
2022-11-02T03:17:17.402Z,11.70
2022-11-02T03:20:08.791Z,11.70
2022-11-02T03:22:53.302Z,11.70
2022-11-02T03:25:39.836Z,11.70
2022-11-02T03:28:34.279Z,11.80
2022-11-02T03:31:17.061Z,11.80
2022-11-02T03:34:06.040Z,11.80
2022-11-02T03:37:19.692Z,11.80
2022-11-02T03:39:50.936Z,11.80
2022-11-02T03:42:27.338Z,11.80
2022-11-02T03:45:15.777Z,11.80
2022-11-02T03:47:47.486Z,11.80
2022-11-02T03:50:18.681Z,11.90
2022-11-02T03:52:48.696Z,11.80
2022-11-02T03:55:50.031Z,11.80
2022-11-02T03:58:17.335Z,11.80
2022-11-02T04:04:11.281Z,11.70
2022-11-02T04:06:39.816Z,11.70
2022-11-02T04:09:07.422Z,11.70
2022-11-02T04:11:52.952Z,11.70
2022-11-02T04:14:38.121Z,11.70
2022-11-02T04:20:19.835Z,11.80
2022-11-02T04:23:05.257Z,11.70
2022-11-02T04:25:32.339Z,11.60
2022-11-02T04:28:07.986Z,11.60
2022-11-02T04:30:35.056Z,11.60
2022-11-02T04:33:20.377Z,11.70
2022-11-02T04:35:47.401Z,11.70
2022-11-02T04:38:32.875Z,11.70
2022-11-02T04:41:19.264Z,11.70
2022-11-02T04:43:46.272Z,11.70
2022-11-02T04:46:13.309Z,11.80
2022-11-02T04:48:40.471Z,11.80
2022-11-02T04:51:07.500Z,11.70
2022-11-02T04:53:41.243Z,11.80
2022-11-02T04:56:11.314Z,11.80
2022-11-02T04:58:38.435Z,11.80
2022-11-02T05:01:11.525Z,11.90
2022-11-02T05:03:38.541Z,11.90
2022-11-02T05:06:05.998Z,11.90
2022-11-02T05:08:33.421Z,11.90
2022-11-02T05:11:00.621Z,11.80
2022-11-02T05:13:37.261Z,11.80
2022-11-02T05:16:04.646Z,11.70
2022-11-02T05:18:32.306Z,11.70
2022-11-02T05:21:01.439Z,11.70
2022-11-02T05:23:29.401Z,11.60
2022-11-02T05:25:57.757Z,11.60
2022-11-02T05:28:25.341Z,11.60
2022-11-02T05:30:52.586Z,11.50
2022-11-02T05:33:20.307Z,11.50
2022-11-02T05:35:47.757Z,11.50
2022-11-02T05:38:14.984Z,11.50
2022-11-02T05:40:42.001Z,11.40
2022-11-02T05:43:09.879Z,11.40
2022-11-02T05:45:37.240Z,11.40
2022-11-02T05:48:07.999Z,11.30
2022-11-02T05:50:35.053Z,11.30
2022-11-02T05:53:02.305Z,11.30
2022-11-02T05:55:29.511Z,11.30
2022-11-02T05:57:56.606Z,11.30
2022-11-02T06:00:24.450Z,11.30
2022-11-02T06:02:57.520Z,11.30
2022-11-02T06:05:25.843Z,11.40
2022-11-02T06:07:52.923Z,11.40
2022-11-02T06:10:19.880Z,11.40
2022-11-02T06:12:58.588Z,11.40
2022-11-02T06:15:26.016Z,11.40
2022-11-02T06:17:53.136Z,11.30
2022-11-02T06:20:20.740Z,11.30
2022-11-02T06:22:48.421Z,11.30
2022-11-02T06:25:15.962Z,11.20
2022-11-02T06:27:49.871Z,11.20
2022-11-02T06:30:16.961Z,11.30
2022-11-02T06:32:51.981Z,11.30
2022-11-02T06:35:20.656Z,11.30
2022-11-02T06:37:47.739Z,11.30
2022-11-02T06:40:19.379Z,11.30
2022-11-02T06:43:15.523Z,11.30
2022-11-02T06:45:43.272Z,11.40
2022-11-02T06:48:10.264Z,11.50
2022-11-02T06:50:37.172Z,11.50
2022-11-02T06:53:04.603Z,11.60
2022-11-02T06:55:31.800Z,11.70
2022-11-02T06:57:58.820Z,11.90
2022-11-02T07:00:58.679Z,12.00
2022-11-02T07:03:26.036Z,12.10
2022-11-02T07:05:53.826Z,12.30
2022-11-02T07:08:24.516Z,12.40
2022-11-02T07:10:51.717Z,12.50
2022-11-02T07:13:19.135Z,12.60
2022-11-02T07:15:46.574Z,12.70
2022-11-02T07:18:14.478Z,12.90
2022-11-02T07:20:41.496Z,13.10
2022-11-02T07:23:09.863Z,13.40
2022-11-02T07:25:37.221Z,13.70
2022-11-02T07:28:04.633Z,14.10
2022-11-02T07:30:34.800Z,14.30
2022-11-02T07:33:02.503Z,14.50
2022-11-02T07:35:30.084Z,14.80
2022-11-02T07:38:02.171Z,15.00
2022-11-02T07:40:31.107Z,15.10
2022-11-02T07:42:58.981Z,15.30
2022-11-02T07:45:26.262Z,15.60
2022-11-02T07:47:53.360Z,15.90
2022-11-02T07:50:23.820Z,16.30
2022-11-02T07:52:53.500Z,16.80
2022-11-02T07:55:26.400Z,17.40
2022-11-02T07:58:02.025Z,18.30
2022-11-02T08:00:32.017Z,19.20
2022-11-02T08:03:06.340Z,19.30
2022-11-02T08:05:42.646Z,19.20
2022-11-02T08:08:26.120Z,19.40
2022-11-02T08:10:54.344Z,19.70
2022-11-02T08:13:26.189Z,20.10
2022-11-02T08:16:02.942Z,20.30
2022-11-02T08:18:40.702Z,20.50
2022-11-02T08:21:13.846Z,20.80
2022-11-02T08:23:41.844Z,21.00
2022-11-02T08:26:12.241Z,21.10
2022-11-02T08:28:50.186Z,20.50
2022-11-02T08:31:18.107Z,20.10
2022-11-02T08:33:54.146Z,19.70
2022-11-02T08:36:22.490Z,19.40
2022-11-02T08:38:51.182Z,19.30
2022-11-02T08:41:20.402Z,19.00
2022-11-02T08:43:49.952Z,19.00
2022-11-02T08:46:18.648Z,18.70
2022-11-02T08:48:48.282Z,18.40
2022-11-02T08:51:24.620Z,18.40
2022-11-02T08:53:55.082Z,18.40
2022-11-02T08:56:26.182Z,18.50
2022-11-02T08:58:54.601Z,18.60
2022-11-02T09:01:33.116Z,18.70
2022-11-02T09:04:03.485Z,18.80
2022-11-02T09:06:32.091Z,19.10
2022-11-02T09:09:00.363Z,19.10
2022-11-02T09:11:38.267Z,19.20
2022-11-02T09:14:15.727Z,19.40
2022-11-02T09:16:45.841Z,19.40
2022-11-02T09:19:14.326Z,19.70
2022-11-02T09:21:42.839Z,19.70
2022-11-02T09:24:12.139Z,19.80
2022-11-02T09:26:51.672Z,19.90
2022-11-02T09:29:21.046Z,19.80
2022-11-02T09:31:49.521Z,19.50
2022-11-02T09:34:20.021Z,19.50
2022-11-02T09:36:49.328Z,19.60
2022-11-02T09:39:19.136Z,19.40
2022-11-02T09:41:59.885Z,19.40
2022-11-02T09:44:47.297Z,19.50
2022-11-02T09:50:12.922Z,19.30
2022-11-02T09:52:47.067Z,19.40
2022-11-02T09:55:23.687Z,19.40
2022-11-02T09:58:05.464Z,19.40
2022-11-02T10:00:51.157Z,19.30
2022-11-02T10:03:44.041Z,19.20
2022-11-02T10:06:20.151Z,19.20
2022-11-02T10:09:10.033Z,19.10
2022-11-02T10:12:03.968Z,18.90
2022-11-02T10:14:41.279Z,17.20
2022-11-02T10:17:23.463Z,14.30
2022-11-02T10:20:00.321Z,12.70
2022-11-02T10:22:50.888Z,11.60
2022-11-02T10:25:27.041Z,11.20
2022-11-02T10:28:05.176Z,11.00
2022-11-02T10:30:35.813Z,11.70
2022-11-02T10:33:16.274Z,12.80
2022-11-02T10:36:22.327Z,14.00
2022-11-02T10:39:26.824Z,15.00
2022-11-02T10:42:18.027Z,15.90
2022-11-02T10:45:27.720Z,16.50
2022-11-02T10:48:33.614Z,16.80
2022-11-02T10:51:13.765Z,17.10
2022-11-02T10:53:55.229Z,17.40
2022-11-02T10:56:33.927Z,17.40
2022-11-02T10:59:10.625Z,17.70
2022-11-02T11:02:03.458Z,17.80
2022-11-02T11:04:50.550Z,17.80
2022-11-02T11:07:27.521Z,17.80
2022-11-02T11:10:06.436Z,17.80
2022-11-02T11:12:41.276Z,18.10
2022-11-02T11:15:48.127Z,18.20
2022-11-02T11:21:13.382Z,18.40
2022-11-02T11:23:43.152Z,18.60
2022-11-02T11:26:29.440Z,18.80
2022-11-02T11:29:01.445Z,18.80
2022-11-02T11:31:35.671Z,18.80
2022-11-02T11:34:13.092Z,18.80
2022-11-02T11:36:48.026Z,18.90
2022-11-02T11:39:37.537Z,19.00
2022-11-02T11:42:05.772Z,19.00
2022-11-02T11:44:36.171Z,19.00
2022-11-02T11:47:07.079Z,19.20
2022-11-02T11:52:46.508Z,19.30
2022-11-02T11:55:50.111Z,19.40
2022-11-02T11:58:32.296Z,19.40
2022-11-02T12:01:21.924Z,19.40
2022-11-02T12:04:01.639Z,19.50
2022-11-02T12:07:21.229Z,19.50
2022-11-02T12:10:25.702Z,19.60
2022-11-02T12:13:05.267Z,19.60
2022-11-02T12:16:12.225Z,19.50
2022-11-02T12:19:03.022Z,19.50
2022-11-02T12:22:18.156Z,19.40
2022-11-02T12:25:16.321Z,19.40
2022-11-02T12:27:55.440Z,19.40
2022-11-02T12:30:31.032Z,19.40
2022-11-02T12:33:36.156Z,19.40
2022-11-02T12:36:21.535Z,19.40
2022-11-02T12:39:08.279Z,19.40
2022-11-02T12:42:33.361Z,19.50
2022-11-02T12:45:52.438Z,19.50
2022-11-02T12:48:37.476Z,19.40
2022-11-02T12:51:11.876Z,19.30
2022-11-02T12:53:55.191Z,19.40
2022-11-02T12:56:45.357Z,19.40
2022-11-02T12:59:25.289Z,19.40
2022-11-02T13:01:59.647Z,19.50
2022-11-02T13:04:51.817Z,19.50
2022-11-02T13:07:51.002Z,19.60
2022-11-02T13:10:33.177Z,19.70
2022-11-02T13:13:03.805Z,19.60
2022-11-02T13:15:45.571Z,19.60
2022-11-02T13:18:47.341Z,19.60
2022-11-02T13:21:24.433Z,19.60
2022-11-02T13:24:02.782Z,19.60
2022-11-02T13:26:57.544Z,19.40
2022-11-02T13:29:48.985Z,19.40
2022-11-02T13:32:44.242Z,19.30
2022-11-02T13:35:26.850Z,19.30
2022-11-02T13:38:32.699Z,19.30
2022-11-02T13:41:42.037Z,19.30
2022-11-02T13:44:47.996Z,19.20
2022-11-02T13:47:42.191Z,19.30
2022-11-02T13:50:14.991Z,19.20
2022-11-02T13:52:58.639Z,19.20
2022-11-02T13:55:45.583Z,19.10
2022-11-02T13:58:33.955Z,19.00
2022-11-02T14:01:12.735Z,18.90
2022-11-02T14:04:17.216Z,18.90
2022-11-02T14:07:01.432Z,18.70
2022-11-02T14:10:03.437Z,18.60
2022-11-02T14:12:46.301Z,18.50
2022-11-02T14:15:21.802Z,18.50
2022-11-02T14:18:26.367Z,18.60
2022-11-02T14:20:56.246Z,18.50
2022-11-02T14:23:38.480Z,18.50
2022-11-02T14:26:31.660Z,18.50
2022-11-02T14:29:03.778Z,18.50
2022-11-02T14:31:42.921Z,18.50
2022-11-02T14:34:35.056Z,18.50
2022-11-02T14:37:36.609Z,18.40
2022-11-02T14:40:36.633Z,18.40
2022-11-02T14:43:34.657Z,18.30
2022-11-02T14:46:35.915Z,18.30
2022-11-02T14:49:06.085Z,18.20
2022-11-02T14:51:38.959Z,18.10
2022-11-02T14:54:22.439Z,18.00
2022-11-02T14:56:56.702Z,18.00
2022-11-02T14:59:53.226Z,17.90
2022-11-02T15:02:43.157Z,17.80
2022-11-02T15:05:40.896Z,17.80
2022-11-02T15:08:29.057Z,17.70
2022-11-02T15:11:07.167Z,17.60
2022-11-02T15:13:50.016Z,17.60
2022-11-02T15:16:22.138Z,17.50
2022-11-02T15:19:01.267Z,17.40
2022-11-02T15:21:30.051Z,17.30
2022-11-02T15:24:17.333Z,17.20
2022-11-02T15:26:58.736Z,17.20
2022-11-02T15:29:44.607Z,17.10
2022-11-02T15:32:30.241Z,17.00
2022-11-02T15:35:02.647Z,17.00
2022-11-02T15:38:10.952Z,17.00
2022-11-02T15:40:44.913Z,16.90
2022-11-02T15:44:09.989Z,16.90
2022-11-02T15:47:10.042Z,16.90
2022-11-02T15:50:05.594Z,16.80
2022-11-02T15:53:29.090Z,16.70
2022-11-02T15:56:15.544Z,16.70
2022-11-02T15:59:22.321Z,16.70
2022-11-02T16:02:20.430Z,16.60
2022-11-02T16:08:05.392Z,16.60
2022-11-02T16:10:38.809Z,16.50
2022-11-02T16:13:24.976Z,16.50
2022-11-02T16:16:06.553Z,16.40
2022-11-02T16:18:40.803Z,16.40
2022-11-02T16:21:18.182Z,16.30
2022-11-02T16:23:56.866Z,16.30
2022-11-02T16:26:30.756Z,16.20
2022-11-02T16:29:01.886Z,16.20
2022-11-02T16:31:32.956Z,16.20
2022-11-02T16:34:23.379Z,16.20
2022-11-02T16:36:53.296Z,16.10
2022-11-02T16:39:39.183Z,16.10
2022-11-02T16:42:19.711Z,16.10
2022-11-02T16:45:07.724Z,16.00
2022-11-02T16:47:45.640Z,15.90
2022-11-02T16:50:47.301Z,15.80
2022-11-02T16:53:33.798Z,15.70
2022-11-02T16:56:46.543Z,15.70
2022-11-02T16:59:16.437Z,15.70
2022-11-02T17:01:46.777Z,15.70
2022-11-02T17:07:44.992Z,15.70
2022-11-02T17:10:29.146Z,15.70
2022-11-02T17:12:57.365Z,15.70
2022-11-02T17:15:40.481Z,15.70
2022-11-02T17:18:18.901Z,15.70
2022-11-02T17:21:16.128Z,15.70
2022-11-02T17:23:48.945Z,15.70
2022-11-02T17:26:38.282Z,15.70
2022-11-02T17:29:33.240Z,15.70
2022-11-02T17:32:03.828Z,15.70
2022-11-02T17:34:31.824Z,15.70
2022-11-02T17:37:07.199Z,15.70
2022-11-02T17:39:35.491Z,15.70
2022-11-02T17:42:25.409Z,15.70
2022-11-02T17:44:53.839Z,15.60
2022-11-02T17:47:22.559Z,15.60
2022-11-02T17:49:53.201Z,15.60
2022-11-02T17:52:20.524Z,15.50
2022-11-02T17:54:48.562Z,15.50
2022-11-02T17:57:18.720Z,15.50
2022-11-02T17:59:54.491Z,15.40
2022-11-02T18:02:22.403Z,15.40
2022-11-02T18:07:44.998Z,15.30
2022-11-02T18:10:23.638Z,15.20
2022-11-02T18:12:57.731Z,15.20
2022-11-02T18:15:35.204Z,15.20
2022-11-02T18:18:02.280Z,15.20
2022-11-02T18:20:40.197Z,15.30
2022-11-02T18:23:20.811Z,15.30
2022-11-02T18:25:51.767Z,15.30
2022-11-02T18:28:33.075Z,15.40
2022-11-02T18:31:00.084Z,15.40
2022-11-02T18:33:28.596Z,15.50
2022-11-02T18:36:08.482Z,15.50
2022-11-02T18:38:37.669Z,15.50
2022-11-02T18:41:27.238Z,15.50
2022-11-02T18:44:04.651Z,15.50
2022-11-02T18:47:02.993Z,15.60
2022-11-02T18:49:38.676Z,15.60
2022-11-02T18:52:06.960Z,15.60
2022-11-02T18:54:36.999Z,15.50
2022-11-02T18:57:07.816Z,15.50
2022-11-02T18:59:36.871Z,15.50
2022-11-02T19:02:08.500Z,15.40
2022-11-02T19:04:38.081Z,15.40
2022-11-02T19:07:24.942Z,15.20
2022-11-02T19:09:57.425Z,15.10
2022-11-02T19:12:32.292Z,15.00
2022-11-02T19:15:02.382Z,14.80
2022-11-02T19:17:32.493Z,14.60
2022-11-02T19:20:09.636Z,14.40
2022-11-02T19:22:37.999Z,14.10
2022-11-02T19:25:07.351Z,13.90
2022-11-02T19:27:34.281Z,13.70
2022-11-02T19:30:11.568Z,13.50
2022-11-02T19:32:38.542Z,13.30
2022-11-02T19:35:15.066Z,13.10
2022-11-02T19:37:45.590Z,13.00
2022-11-02T19:40:14.122Z,12.90
2022-11-02T19:42:42.899Z,12.80
2022-11-02T19:45:17.877Z,12.70
2022-11-02T19:47:55.920Z,12.60
2022-11-02T19:50:25.516Z,12.50
2022-11-02T19:52:54.640Z,12.50
2022-11-02T19:55:30.388Z,12.40
2022-11-02T19:57:58.400Z,12.40
2022-11-02T20:00:35.043Z,12.30
2022-11-02T20:03:02.888Z,12.30
2022-11-02T20:08:19.656Z,12.40
2022-11-02T20:10:48.103Z,12.40
2022-11-02T20:13:21.125Z,12.40
2022-11-02T20:15:49.288Z,12.40
2022-11-02T20:18:20.050Z,12.50
2022-11-02T20:20:59.893Z,12.50
2022-11-02T20:23:36.997Z,12.60
2022-11-02T20:26:11.935Z,12.50
2022-11-02T20:28:45.016Z,12.40
2022-11-02T20:31:27.253Z,12.40
2022-11-02T20:33:56.256Z,12.30
2022-11-02T20:36:27.877Z,12.30
2022-11-02T20:38:57.002Z,12.30
2022-11-02T20:41:28.413Z,12.30
2022-11-02T20:43:57.126Z,12.30
2022-11-02T20:46:38.944Z,12.40
2022-11-02T20:49:21.738Z,12.30
2022-11-02T20:51:59.759Z,12.10
2022-11-02T20:54:33.337Z,11.70
2022-11-02T20:57:02.907Z,11.20
2022-11-02T20:59:38.955Z,10.70
2022-11-02T21:02:14.094Z,10.70
2022-11-02T21:04:45.347Z,10.60
2022-11-02T21:07:16.320Z,11.40
2022-11-02T21:09:46.177Z,11.80
2022-11-02T21:12:37.657Z,12.00
2022-11-02T21:15:09.260Z,12.20
2022-11-02T21:17:36.296Z,12.30
2022-11-02T21:20:28.325Z,12.30
2022-11-02T21:22:52.740Z,12.30
2022-11-02T21:25:21.962Z,12.30
2022-11-02T21:27:58.836Z,12.30
2022-11-02T21:30:27.756Z,12.30
2022-11-02T21:32:59.396Z,12.30
2022-11-02T21:35:28.022Z,12.20
2022-11-02T21:38:05.265Z,12.20
2022-11-02T21:40:37.359Z,12.10
2022-11-02T21:43:15.016Z,12.10
2022-11-02T21:46:00.751Z,12.10
2022-11-02T21:48:39.997Z,12.10
2022-11-02T21:51:20.942Z,12.10
2022-11-02T21:53:57.889Z,12.10
2022-11-02T21:56:33.164Z,12.10
2022-11-02T21:59:02.359Z,12.10
2022-11-02T22:01:50.937Z,12.20
2022-11-02T22:04:32.440Z,12.20
2022-11-02T22:07:02.066Z,12.20
2022-11-02T22:09:33.700Z,10.90
2022-11-02T22:12:25.587Z,10.40
2022-11-02T22:14:55.423Z,9.50
2022-11-02T22:17:47.889Z,9.20
2022-11-02T22:20:13.622Z,9.10
2022-11-02T22:22:43.063Z,8.30
2022-11-02T22:25:13.873Z,8.20
2022-11-02T22:27:42.301Z,7.90
2022-11-02T22:30:11.033Z,7.90
2022-11-02T22:32:39.003Z,8.30
2022-11-02T22:35:16.216Z,9.70
2022-11-02T22:38:04.736Z,10.50
2022-11-02T22:40:33.432Z,10.90
2022-11-02T22:43:00.747Z,11.20
2022-11-02T22:45:30.839Z,11.50
2022-11-02T22:47:59.319Z,11.70
2022-11-02T22:50:29.366Z,11.90
2022-11-02T22:52:57.685Z,12.10
2022-11-02T22:55:28.296Z,12.20
2022-11-02T22:58:01.177Z,12.20
2022-11-02T23:00:28.142Z,12.20
2022-11-02T23:02:55.929Z,12.30
2022-11-02T23:05:26.047Z,12.20
2022-11-02T23:08:03.783Z,12.20
2022-11-02T23:10:55.120Z,12.20
2022-11-02T23:13:24.947Z,12.20
2022-11-02T23:16:21.312Z,12.20
2022-11-02T23:19:43.717Z,12.20
2022-11-02T23:22:34.058Z,12.20
2022-11-02T23:25:17.812Z,12.20
2022-11-02T23:28:16.469Z,12.20
2022-11-02T23:31:06.399Z,12.20
2022-11-02T23:33:41.441Z,12.20
2022-11-02T23:36:19.228Z,12.20
2022-11-02T23:39:09.857Z,12.20
2022-11-02T23:41:48.591Z,12.30
2022-11-02T23:44:19.037Z,12.30
2022-11-02T23:46:51.497Z,12.30
2022-11-02T23:49:20.084Z,12.30
2022-11-02T23:52:08.876Z,12.30
2022-11-02T23:54:57.381Z,12.30
2022-11-02T23:57:27.839Z,12.30
2022-11-02T23:59:54.881Z,12.30
